createdAt,value
2023-01-20T00:01:12.518Z,58.87
2023-01-20T00:03:41.263Z,59.03
2023-01-20T00:06:11.117Z,58.77
2023-01-20T00:08:39.460Z,58.80
2023-01-20T00:11:09.176Z,58.61
2023-01-20T00:13:38.256Z,59.00
2023-01-20T00:16:08.445Z,59.03
2023-01-20T00:18:36.731Z,59.49
2023-01-20T00:21:05.662Z,59.49
2023-01-20T00:23:35.554Z,59.49
2023-01-20T00:26:06.755Z,59.73
2023-01-20T00:28:35.717Z,59.44
2023-01-20T00:31:15.633Z,59.25
2023-01-20T00:33:44.120Z,59.40
2023-01-20T00:36:13.585Z,59.46
2023-01-20T00:38:43.094Z,59.34
2023-01-20T00:41:11.908Z,59.25
2023-01-20T00:43:40.508Z,59.43
2023-01-20T00:46:09.086Z,59.43
2023-01-20T00:48:37.503Z,59.60
2023-01-20T00:51:07.422Z,59.51
2023-01-20T00:53:35.853Z,59.68
2023-01-20T00:56:05.664Z,60.02
2023-01-20T00:58:33.771Z,59.78
2023-01-20T01:01:02.208Z,59.68
2023-01-20T01:03:30.568Z,59.63
2023-01-20T01:06:07.629Z,59.44
2023-01-20T01:08:35.994Z,60.12
2023-01-20T01:11:06.531Z,60.02
2023-01-20T01:13:35.005Z,60.32
2023-01-20T01:16:03.420Z,60.35
2023-01-20T01:18:31.544Z,60.33
2023-01-20T01:20:59.596Z,60.27
2023-01-20T01:23:27.628Z,60.21
2023-01-20T01:25:55.640Z,60.27
2023-01-20T01:28:25.089Z,60.06
2023-01-20T01:30:53.182Z,60.18
2023-01-20T01:33:21.293Z,60.06
2023-01-20T01:35:56.382Z,59.91
2023-01-20T01:38:24.698Z,60.03
2023-01-20T01:40:53.718Z,59.98
2023-01-20T01:43:25.734Z,59.88
2023-01-20T01:45:54.204Z,60.34
2023-01-20T01:48:25.430Z,60.27
2023-01-20T01:50:57.385Z,60.38
2023-01-20T01:53:26.633Z,60.37
2023-01-20T01:55:59.527Z,60.59
2023-01-20T01:58:33.359Z,60.80
2023-01-20T02:01:01.561Z,60.76
2023-01-20T02:03:36.516Z,60.96
2023-01-20T02:06:05.923Z,61.18
2023-01-20T02:08:34.975Z,60.98
2023-01-20T02:11:03.035Z,61.19
2023-01-20T02:13:32.939Z,61.98
2023-01-20T02:16:13.628Z,62.07
2023-01-20T02:18:55.406Z,61.93
2023-01-20T02:21:56.132Z,62.00
2023-01-20T02:24:54.944Z,61.71
2023-01-20T02:27:40.744Z,61.48
2023-01-20T02:30:50.128Z,61.83
2023-01-20T02:33:24.769Z,62.02
2023-01-20T02:35:56.684Z,62.05
2023-01-20T02:38:32.243Z,62.34
2023-01-20T02:41:09.850Z,62.49
2023-01-20T02:43:45.529Z,62.39
2023-01-20T02:46:21.795Z,62.19
2023-01-20T02:48:55.494Z,62.43
2023-01-20T02:51:28.091Z,62.47
2023-01-20T02:54:01.691Z,62.09
2023-01-20T02:56:31.314Z,62.21
2023-01-20T02:59:03.275Z,62.57
2023-01-20T03:01:34.457Z,62.58
2023-01-20T03:04:06.066Z,62.61
2023-01-20T03:06:38.320Z,62.60
2023-01-20T03:09:10.080Z,62.32
2023-01-20T03:11:42.505Z,62.46
2023-01-20T03:14:14.046Z,62.31
2023-01-20T03:16:43.127Z,62.33
2023-01-20T03:19:12.926Z,62.70
2023-01-20T03:21:41.048Z,62.46
2023-01-20T03:24:09.381Z,61.99
2023-01-20T03:26:38.926Z,61.77
2023-01-20T03:29:09.259Z,62.02
2023-01-20T03:31:40.605Z,62.26
2023-01-20T03:34:12.800Z,62.11
2023-01-20T03:36:44.679Z,62.49
2023-01-20T03:39:13.009Z,62.37
2023-01-20T03:41:52.103Z,61.95
2023-01-20T03:44:25.259Z,61.80
2023-01-20T03:46:59.316Z,61.72
2023-01-20T03:49:31.836Z,61.88
2023-01-20T03:52:06.189Z,61.81
2023-01-20T03:54:40.663Z,62.02
2023-01-20T03:57:14.998Z,62.53
2023-01-20T03:59:46.779Z,62.62
2023-01-20T04:02:14.947Z,62.15
2023-01-20T04:04:45.951Z,62.01
2023-01-20T04:07:19.675Z,61.62
2023-01-20T04:09:51.958Z,62.25
2023-01-20T04:12:20.169Z,62.02
2023-01-20T04:14:48.289Z,62.13
2023-01-20T04:17:16.754Z,62.39
2023-01-20T04:19:44.879Z,62.24
2023-01-20T04:22:20.566Z,62.02
2023-01-20T04:24:54.492Z,62.35
2023-01-20T04:27:22.571Z,62.86
2023-01-20T04:29:50.753Z,62.27
2023-01-20T04:32:18.855Z,62.58
2023-01-20T04:34:47.017Z,62.06
2023-01-20T04:37:16.409Z,61.92
2023-01-20T04:39:44.602Z,61.76
2023-01-20T04:42:13.065Z,61.94
2023-01-20T04:44:41.148Z,61.79
2023-01-20T04:47:09.252Z,61.50
2023-01-20T04:49:37.350Z,61.70
2023-01-20T04:52:05.758Z,61.59
2023-01-20T04:54:35.780Z,61.59
2023-01-20T04:57:03.819Z,61.56
2023-01-20T04:59:31.892Z,61.99
2023-01-20T05:01:59.993Z,62.14
2023-01-20T05:04:28.095Z,62.59
2023-01-20T05:06:56.159Z,62.57
2023-01-20T05:09:24.207Z,62.41
2023-01-20T05:11:53.610Z,61.90
2023-01-20T05:14:21.680Z,61.91
2023-01-20T05:16:49.676Z,62.60
2023-01-20T05:19:17.767Z,61.96
2023-01-20T05:21:45.812Z,61.66
2023-01-20T05:24:13.886Z,61.60
2023-01-20T05:26:41.938Z,61.47
2023-01-20T05:29:11.332Z,61.40
2023-01-20T05:31:43.367Z,61.40
2023-01-20T05:34:12.267Z,61.35
2023-01-20T05:36:40.353Z,61.14
2023-01-20T05:39:08.383Z,61.61
2023-01-20T05:41:36.413Z,61.78
2023-01-20T05:44:04.466Z,61.70
2023-01-20T05:46:33.969Z,61.28
2023-01-20T05:49:03.063Z,61.49
2023-01-20T05:51:32.164Z,61.82
2023-01-20T05:54:00.188Z,61.73
2023-01-20T05:56:28.205Z,61.98
2023-01-20T05:58:57.070Z,61.96
2023-01-20T06:01:25.125Z,61.64
2023-01-20T06:03:54.641Z,61.16
2023-01-20T06:06:22.802Z,61.01
2023-01-20T06:08:53.165Z,60.97
2023-01-20T06:11:21.659Z,61.07
2023-01-20T06:13:49.735Z,60.97
2023-01-20T06:16:18.555Z,61.29
2023-01-20T06:18:46.804Z,60.98
2023-01-20T06:21:16.281Z,61.41
2023-01-20T06:23:44.378Z,61.44
2023-01-20T06:26:15.011Z,61.32
2023-01-20T06:28:43.381Z,61.19
2023-01-20T06:31:14.136Z,61.24
2023-01-20T06:33:42.887Z,61.47
2023-01-20T06:36:13.687Z,61.44
2023-01-20T06:38:46.713Z,61.38
2023-01-20T06:41:15.253Z,61.38
2023-01-20T06:43:43.381Z,60.83
2023-01-20T06:46:12.924Z,60.96
2023-01-20T06:48:41.303Z,61.25
2023-01-20T06:51:11.639Z,61.00
2023-01-20T06:53:39.685Z,60.94
2023-01-20T06:56:11.680Z,60.41
2023-01-20T06:58:39.750Z,60.54
2023-01-20T07:01:10.027Z,60.50
2023-01-20T07:03:38.495Z,60.65
2023-01-20T07:06:14.998Z,60.57
2023-01-20T07:08:44.545Z,60.54
2023-01-20T07:11:14.317Z,60.37
2023-01-20T07:13:42.539Z,60.76
2023-01-20T07:16:13.195Z,60.62
2023-01-20T07:18:43.776Z,60.11
2023-01-20T07:21:12.949Z,60.02
2023-01-20T07:23:41.073Z,60.15
2023-01-20T07:26:10.943Z,60.06
2023-01-20T07:28:40.631Z,60.95
2023-01-20T07:31:10.513Z,61.12
2023-01-20T07:33:38.837Z,60.76
2023-01-20T07:36:08.038Z,60.85
2023-01-20T07:38:36.316Z,60.81
2023-01-20T07:41:06.547Z,60.95
2023-01-20T07:43:34.751Z,60.89
2023-01-20T07:46:06.132Z,60.56
2023-01-20T07:48:35.165Z,60.85
2023-01-20T07:51:05.713Z,60.60
2023-01-20T07:53:35.930Z,60.43
2023-01-20T07:56:04.974Z,60.68
2023-01-20T07:58:33.093Z,61.17
2023-01-20T08:01:09.690Z,60.63
2023-01-20T08:03:38.019Z,60.79
2023-01-20T08:06:06.643Z,60.78
2023-01-20T08:08:35.441Z,61.02
2023-01-20T08:11:04.243Z,62.23
2023-01-20T08:13:33.219Z,62.32
2023-01-20T08:16:02.550Z,61.60
2023-01-20T08:18:32.817Z,61.14
2023-01-20T08:21:00.999Z,61.02
2023-01-20T08:23:29.218Z,60.72
2023-01-20T08:25:59.931Z,60.81
2023-01-20T08:28:29.226Z,60.96
2023-01-20T08:31:04.625Z,59.86
2023-01-20T08:33:34.331Z,59.78
2023-01-20T08:36:10.995Z,59.58
2023-01-20T08:38:39.867Z,59.83
2023-01-20T08:41:08.875Z,59.47
2023-01-20T08:43:37.045Z,59.52
2023-01-20T08:46:07.867Z,59.17
2023-01-20T08:48:38.251Z,58.96
2023-01-20T08:51:07.667Z,58.77
2023-01-20T08:53:35.900Z,58.79
2023-01-20T08:56:04.687Z,59.11
2023-01-20T08:58:32.899Z,58.99
2023-01-20T09:01:01.361Z,59.09
2023-01-20T09:03:30.671Z,58.73
2023-01-20T09:06:04.354Z,58.64
2023-01-20T09:08:32.416Z,58.95
2023-01-20T09:11:04.984Z,58.96
2023-01-20T09:13:33.166Z,58.91
2023-01-20T09:16:01.249Z,58.66
2023-01-20T09:18:29.382Z,58.45
2023-01-20T09:20:59.720Z,58.46
2023-01-20T09:23:30.199Z,58.17
2023-01-20T09:26:04.953Z,58.21
2023-01-20T09:28:33.219Z,58.80
2023-01-20T09:31:01.431Z,58.50
2023-01-20T09:33:29.610Z,58.11
2023-01-20T09:35:58.216Z,58.25
2023-01-20T09:38:47.776Z,58.21
2023-01-20T09:41:36.539Z,57.81
2023-01-20T09:44:17.055Z,57.02
2023-01-20T09:47:23.039Z,57.16
2023-01-20T09:50:21.985Z,57.91
2023-01-20T09:53:02.314Z,57.54
2023-01-20T09:55:40.091Z,57.22
2023-01-20T09:58:14.467Z,57.30
2023-01-20T10:00:48.354Z,56.97
2023-01-20T10:03:22.304Z,57.13
2023-01-20T10:05:53.863Z,56.38
2023-01-20T10:08:30.172Z,56.78
2023-01-20T10:11:06.945Z,56.83
2023-01-20T10:13:39.866Z,56.70
2023-01-20T10:16:12.532Z,56.85
2023-01-20T10:18:47.814Z,56.58
2023-01-20T10:21:21.315Z,56.35
2023-01-20T10:23:53.531Z,56.10
2023-01-20T10:26:28.752Z,56.41
2023-01-20T10:29:00.413Z,56.29
2023-01-20T10:31:30.418Z,56.65
2023-01-20T10:34:02.813Z,56.55
2023-01-20T10:36:32.155Z,56.12
2023-01-20T10:39:05.047Z,55.78
2023-01-20T10:41:41.733Z,55.40
2023-01-20T10:44:13.481Z,55.44
2023-01-20T10:47:01.027Z,54.98
2023-01-20T10:49:45.569Z,55.49
2023-01-20T10:52:28.150Z,55.79
2023-01-20T10:55:07.503Z,56.10
2023-01-20T10:57:38.305Z,55.81
2023-01-20T11:00:08.856Z,55.61
2023-01-20T11:02:38.161Z,55.65
2023-01-20T11:05:18.300Z,55.16
2023-01-20T11:07:47.411Z,55.32
2023-01-20T11:10:17.914Z,54.97
2023-01-20T11:12:51.020Z,55.32
2023-01-20T11:15:21.956Z,55.61
2023-01-20T11:18:21.319Z,55.74
2023-01-20T11:20:52.314Z,55.47
2023-01-20T11:23:23.383Z,55.16
2023-01-20T11:25:59.537Z,54.92
2023-01-20T11:28:38.806Z,54.78
2023-01-20T11:31:07.246Z,55.20
2023-01-20T11:33:35.547Z,55.04
2023-01-20T11:36:05.955Z,54.71
2023-01-20T11:38:43.384Z,54.54
2023-01-20T11:41:20.149Z,54.13
2023-01-20T11:43:51.124Z,54.41
2023-01-20T11:46:29.027Z,53.77
2023-01-20T11:49:24.601Z,54.26
2023-01-20T11:51:54.694Z,54.76
2023-01-20T11:54:24.491Z,54.13
2023-01-20T11:56:56.517Z,54.03
2023-01-20T11:59:29.221Z,53.78
2023-01-20T12:02:01.738Z,54.05
2023-01-20T12:05:00.682Z,54.18
2023-01-20T12:07:32.209Z,54.00
2023-01-20T12:10:06.108Z,54.00
2023-01-20T12:12:41.041Z,53.41
2023-01-20T12:15:18.025Z,53.09
2023-01-20T12:17:55.035Z,52.59
2023-01-20T12:20:29.576Z,52.98
2023-01-20T12:23:14.424Z,52.69
2023-01-20T12:25:49.393Z,53.27
2023-01-20T12:28:22.700Z,53.49
2023-01-20T12:30:59.377Z,53.15
2023-01-20T12:33:31.643Z,52.95
2023-01-20T12:36:25.057Z,52.66
2023-01-20T12:39:30.592Z,52.45
2023-01-20T12:42:26.083Z,52.78
2023-01-20T12:44:59.586Z,52.80
2023-01-20T12:47:40.788Z,52.90
2023-01-20T12:50:25.087Z,52.46
2023-01-20T12:53:10.712Z,51.97
2023-01-20T12:55:49.897Z,51.94
2023-01-20T12:58:27.601Z,52.31
2023-01-20T13:01:12.666Z,51.84
2023-01-20T13:04:23.214Z,52.12
2023-01-20T13:07:06.038Z,52.17
2023-01-20T13:09:48.445Z,51.91
2023-01-20T13:12:34.037Z,50.92
2023-01-20T13:15:14.906Z,51.39
2023-01-20T13:17:50.042Z,51.28
2023-01-20T13:20:24.575Z,51.07
2023-01-20T13:22:54.017Z,51.13
2023-01-20T13:25:23.859Z,51.00
2023-01-20T13:27:54.603Z,51.72
2023-01-20T13:30:48.176Z,51.62
2023-01-20T13:33:25.726Z,51.56
2023-01-20T13:35:55.935Z,51.25
2023-01-20T13:38:27.857Z,50.83
2023-01-20T13:40:58.817Z,51.04
2023-01-20T13:43:51.212Z,50.46
2023-01-20T13:46:48.393Z,50.71
2023-01-20T13:49:23.524Z,51.24
2023-01-20T13:51:53.249Z,51.62
2023-01-20T13:54:43.521Z,51.37
2023-01-20T13:57:44.958Z,51.46
2023-01-20T14:00:18.281Z,51.53
2023-01-20T14:02:48.987Z,51.67
2023-01-20T14:05:26.317Z,51.36
2023-01-20T14:07:56.788Z,51.51
2023-01-20T14:10:25.543Z,51.37
2023-01-20T14:12:53.944Z,51.29
2023-01-20T14:15:35.940Z,51.08
2023-01-20T14:18:04.714Z,51.30
2023-01-20T14:20:33.171Z,51.18
2023-01-20T14:23:38.231Z,51.10
2023-01-20T14:26:11.777Z,51.77
2023-01-20T14:28:48.220Z,51.42
2023-01-20T14:31:32.059Z,51.77
2023-01-20T14:34:03.510Z,52.11
2023-01-20T14:36:33.721Z,51.91
2023-01-20T14:39:04.363Z,51.94
2023-01-20T14:41:47.929Z,51.97
2023-01-20T14:44:20.877Z,51.98
2023-01-20T14:46:52.144Z,51.69
2023-01-20T14:49:22.617Z,52.42
2023-01-20T14:51:51.929Z,52.27
2023-01-20T14:54:31.154Z,51.82
2023-01-20T14:57:03.676Z,51.88
2023-01-20T14:59:32.079Z,51.84
2023-01-20T15:02:04.094Z,51.66
2023-01-20T15:04:37.298Z,51.61
2023-01-20T15:07:06.464Z,51.66
2023-01-20T15:09:36.246Z,51.77
2023-01-20T15:12:42.730Z,51.52
2023-01-20T15:15:21.965Z,51.38
2023-01-20T15:18:23.398Z,51.29
2023-01-20T15:21:11.703Z,51.46
2023-01-20T15:23:45.938Z,51.62
2023-01-20T15:26:31.278Z,51.17
2023-01-20T15:28:59.845Z,51.53
2023-01-20T15:31:29.918Z,52.14
2023-01-20T15:33:58.329Z,51.66
2023-01-20T15:36:30.083Z,51.72
2023-01-20T15:38:58.511Z,51.73
2023-01-20T15:41:26.848Z,51.68
2023-01-20T15:43:55.329Z,51.59
2023-01-20T15:46:23.672Z,51.60
2023-01-20T15:48:53.531Z,51.74
2023-01-20T15:51:22.084Z,51.83
2023-01-20T15:53:50.644Z,51.79
2023-01-20T15:56:22.277Z,51.97
2023-01-20T15:58:51.570Z,52.11
2023-01-20T16:01:23.960Z,52.18
2023-01-20T16:03:55.739Z,52.00
2023-01-20T16:06:28.609Z,51.87
2023-01-20T16:08:57.011Z,51.80
2023-01-20T16:11:25.715Z,51.80
2023-01-20T16:13:54.249Z,51.82
2023-01-20T16:16:24.228Z,51.83
2023-01-20T16:18:54.105Z,51.88
2023-01-20T16:21:22.562Z,51.82
2023-01-20T16:23:50.879Z,52.17
2023-01-20T16:26:22.917Z,52.14
2023-01-20T16:28:51.800Z,51.98
2023-01-20T16:31:20.750Z,51.95
2023-01-20T16:33:49.192Z,51.84
2023-01-20T16:36:20.749Z,51.79
2023-01-20T16:38:49.902Z,51.78
2023-01-20T16:41:21.645Z,51.82
2023-01-20T16:43:50.673Z,51.94
2023-01-20T16:46:20.652Z,51.98
2023-01-20T16:48:49.524Z,52.02
2023-01-20T16:51:22.870Z,51.91
2023-01-20T16:53:51.313Z,52.00
2023-01-20T16:56:22.127Z,52.01
2023-01-20T16:58:51.860Z,52.02
2023-01-20T17:01:24.526Z,52.04
2023-01-20T17:03:54.888Z,52.28
2023-01-20T17:06:26.641Z,52.34
2023-01-20T17:08:56.614Z,52.45
2023-01-20T17:11:33.140Z,52.26
2023-01-20T17:14:03.887Z,52.39
2023-01-20T17:16:32.527Z,52.42
2023-01-20T17:19:01.861Z,52.44
2023-01-20T17:21:33.912Z,52.21
2023-01-20T17:24:03.750Z,52.32
2023-01-20T17:26:32.898Z,52.32
2023-01-20T17:29:03.372Z,52.30
2023-01-20T17:31:34.579Z,52.27
2023-01-20T17:34:03.079Z,52.27
2023-01-20T17:36:34.700Z,52.32
2023-01-20T17:39:03.803Z,52.40
2023-01-20T17:41:32.141Z,52.28
2023-01-20T17:44:01.148Z,52.27
2023-01-20T17:46:31.558Z,52.24
2023-01-20T17:49:00.510Z,52.23
2023-01-20T17:51:30.359Z,52.18
2023-01-20T17:54:03.775Z,52.04
2023-01-20T17:56:32.605Z,51.99
2023-01-20T17:59:00.896Z,52.01
2023-01-20T18:01:31.469Z,52.13
2023-01-20T18:04:01.098Z,52.12
2023-01-20T18:06:30.625Z,52.20
2023-01-20T18:09:01.515Z,52.11
2023-01-20T18:11:32.357Z,52.02
2023-01-20T18:14:01.839Z,51.98
2023-01-20T18:16:32.415Z,52.09
2023-01-20T18:19:00.817Z,52.12
2023-01-20T18:21:31.281Z,52.16
2023-01-20T18:24:02.133Z,52.17
2023-01-20T18:26:33.091Z,52.27
2023-01-20T18:29:03.477Z,52.36
2023-01-20T18:31:33.503Z,52.49
2023-01-20T18:34:03.872Z,52.60
2023-01-20T18:36:34.016Z,52.64
2023-01-20T18:39:06.295Z,52.61
2023-01-20T18:41:37.592Z,52.85
2023-01-20T18:44:06.908Z,52.98
2023-01-20T18:46:35.547Z,53.17
2023-01-20T18:49:05.624Z,53.27
2023-01-20T18:51:35.164Z,53.34
2023-01-20T18:54:07.660Z,53.31
2023-01-20T18:56:36.474Z,53.36
2023-01-20T18:59:06.407Z,53.48
2023-01-20T19:01:36.266Z,53.40
2023-01-20T19:04:05.740Z,53.43
2023-01-20T19:06:36.865Z,53.53
2023-01-20T19:09:07.727Z,53.43
2023-01-20T19:11:39.483Z,53.43
2023-01-20T19:14:09.401Z,53.45
2023-01-20T19:16:39.352Z,53.62
2023-01-20T19:19:08.261Z,53.59
2023-01-20T19:21:37.447Z,53.46
2023-01-20T19:24:08.117Z,53.30
2023-01-20T19:26:37.716Z,53.17
2023-01-20T19:29:07.418Z,53.14
2023-01-20T19:31:37.420Z,53.11
2023-01-20T19:34:05.731Z,53.05
2023-01-20T19:36:34.579Z,53.20
2023-01-20T19:39:03.154Z,53.20
2023-01-20T19:41:34.293Z,53.47
2023-01-20T19:44:03.446Z,53.35
2023-01-20T19:46:34.451Z,53.38
2023-01-20T19:49:03.242Z,53.36
2023-01-20T19:51:32.347Z,53.37
2023-01-20T19:54:02.186Z,53.48
2023-01-20T19:56:33.653Z,53.56
2023-01-20T19:59:02.275Z,53.67
2023-01-20T20:01:31.988Z,53.78
2023-01-20T20:04:05.499Z,53.84
2023-01-20T20:06:35.001Z,54.05
2023-01-20T20:09:05.585Z,54.02
2023-01-20T20:11:35.683Z,54.07
2023-01-20T20:14:05.636Z,54.46
2023-01-20T20:16:36.336Z,54.62
2023-01-20T20:19:05.414Z,54.76
2023-01-20T20:21:34.559Z,54.83
2023-01-20T20:24:05.239Z,54.81
2023-01-20T20:26:37.130Z,54.77
2023-01-20T20:29:07.258Z,55.04
2023-01-20T20:31:37.556Z,55.06
2023-01-20T20:34:07.661Z,55.01
2023-01-20T20:36:36.538Z,55.15
2023-01-20T20:39:05.737Z,55.26
2023-01-20T20:41:36.671Z,55.39
2023-01-20T20:44:05.749Z,55.52
2023-01-20T20:46:34.185Z,55.78
2023-01-20T20:49:02.598Z,55.97
2023-01-20T20:51:33.845Z,56.32
2023-01-20T20:54:03.615Z,56.62
2023-01-20T20:56:32.892Z,56.88
2023-01-20T20:59:03.912Z,57.00
2023-01-20T21:01:34.625Z,56.93
2023-01-20T21:04:03.347Z,56.91
2023-01-20T21:06:31.924Z,56.90
2023-01-20T21:09:00.465Z,56.84
2023-01-20T21:11:28.894Z,56.73
2023-01-20T21:13:57.117Z,56.64
2023-01-20T21:16:28.081Z,56.77
2023-01-20T21:18:57.576Z,56.86
2023-01-20T21:21:26.071Z,56.85
2023-01-20T21:23:55.477Z,56.93
2023-01-20T21:26:24.849Z,56.97
2023-01-20T21:28:53.973Z,56.89
2023-01-20T21:31:24.616Z,57.01
2023-01-20T21:33:56.979Z,57.12
2023-01-20T21:36:26.135Z,57.13
2023-01-20T21:38:54.455Z,57.14
2023-01-20T21:41:22.542Z,57.15
2023-01-20T21:44:08.687Z,57.20
2023-01-20T21:46:39.496Z,57.19
2023-01-20T21:49:27.017Z,57.09
2023-01-20T21:52:12.545Z,56.98
2023-01-20T21:54:41.530Z,56.97
2023-01-20T21:57:10.154Z,56.97
2023-01-20T21:59:38.397Z,56.91
2023-01-20T22:02:06.812Z,56.93
2023-01-20T22:04:36.728Z,56.87
2023-01-20T22:07:04.820Z,56.84
2023-01-20T22:09:33.431Z,56.89
2023-01-20T22:12:01.781Z,56.99
2023-01-20T22:14:29.898Z,56.87
2023-01-20T22:16:58.600Z,56.84
2023-01-20T22:19:27.240Z,56.97
2023-01-20T22:21:57.622Z,56.93
2023-01-20T22:24:25.775Z,56.94
2023-01-20T22:26:53.896Z,57.00
2023-01-20T22:29:22.805Z,57.00
2023-01-20T22:31:53.693Z,56.95
2023-01-20T22:34:22.561Z,56.96
2023-01-20T22:36:50.753Z,56.94
2023-01-20T22:39:20.316Z,57.00
2023-01-20T22:41:48.399Z,57.04
2023-01-20T22:44:16.579Z,57.16
2023-01-20T22:46:44.771Z,57.21
2023-01-20T22:49:13.587Z,57.26
2023-01-20T22:51:41.699Z,57.29
2023-01-20T22:54:11.252Z,57.25
2023-01-20T22:56:40.742Z,57.34
2023-01-20T22:59:08.828Z,57.31
2023-01-20T23:01:37.373Z,57.41
2023-01-20T23:04:06.925Z,57.41
2023-01-20T23:06:36.749Z,57.45
2023-01-20T23:09:07.000Z,57.42
2023-01-20T23:11:38.188Z,57.44
2023-01-20T23:14:10.737Z,57.37
2023-01-20T23:16:38.948Z,57.35
2023-01-20T23:19:07.920Z,57.40
2023-01-20T23:21:36.657Z,57.41
2023-01-20T23:24:05.015Z,57.39
2023-01-20T23:26:34.291Z,57.39
2023-01-20T23:29:02.429Z,57.42
2023-01-20T23:31:33.599Z,57.45
2023-01-20T23:34:01.809Z,57.52
2023-01-20T23:36:29.906Z,57.64
2023-01-20T23:38:58.042Z,57.62
2023-01-20T23:41:26.481Z,57.61
2023-01-20T23:43:54.536Z,57.80
2023-01-20T23:46:22.609Z,57.88
2023-01-20T23:48:51.999Z,58.27
2023-01-20T23:51:20.199Z,58.38
2023-01-20T23:53:48.305Z,58.60
2023-01-20T23:56:18.877Z,58.51
2023-01-20T23:58:47.207Z,58.43
